Terminal Aerodrome Forecast
Issued by NWS Sterling, VA

Current Version | Previous Version | Text Only | Print | Product List | Glossary Off
Versions: 1 2 3 4 5 6 7 8 9 10 11 12 13 14 15 16 17 18 19 20 21 22

000
FTUS41 KLWX 251732
TAFDCA
TAF
KDCA 251732Z 2518/2618 20013G22KT P6SM SCT050 SCT250
     FM260000 18008KT P6SM FEW200
     FM261500 20008G20KT P6SM SCT050 SCT100=

USA.gov is the U.S. government's official web portal to all federal, state and local government web resources and services.